Flight Track Log - Related Links

Times and Time Zones

All times are in EDT time to prevent confusion due to time zone crossing. See the N45NF flight status page for this flight to view local times or setup timezone preferences in your user account.

Time Position Orientation Groundspeed Altitude Reporting Facility
EDT Latitude Longitude Course Direction KTS MPH feet Rate Location/Type
Fri 04:04:47 PM 35.9708 -78.7358 23° Northeast 273 314 5,700  Level Washington Center
Fri 04:05:51 PM 36.0258 -78.7844 324° Northwest 271 312 9,400 3,148 Climbing Washington Center
Fri 04:06:49 PM 36.0067 -78.8786 256° West 208 239 12,100 2,824 Climbing Washington Center
Fri 04:07:50 PM 35.9808 -78.9803 253° West 248 285 15,000 1,902 Climbing Washington Center
Fri 04:08:52 PM 36.0350 -79.0597 310° West 271 312 16,000 504 Climbing Washington Center
Fri 04:09:49 PM 36.1189 -79.1147 332° Northwest 306 352 16,000  Level Washington Center
Fri 04:10:50 PM 36.2167 -79.1886 329° Northwest 361 415 16,000  Level Washington Center
Fri 04:11:50 PM 36.2964 -79.2489 329° Northwest 371 427 16,000  Level Washington Center
Fri 04:12:50 PM 36.3758 -79.3119 327° Northwest 382 440 16,000  Level Washington Center
Fri 04:13:51 PM 36.4736 -79.3864 329° Northwest 382 440 16,000  Level Washington Center
Fri 04:14:51 PM 36.5592 -79.4528 328° Northwest 382 440 16,000  Level Washington Center
Fri 04:15:49 PM 36.6567 -79.5300 328° Northwest 382 440 16,000  Level Washington Center
Fri 04:16:51 PM 36.7419 -79.5992 327° Northwest 382 440 16,000  Level Washington Center
Fri 04:17:51 PM 36.8294 -79.6686 328° Northwest 377 434 16,000  Level Washington Center
Fri 04:18:49 PM 36.9169 -79.7356 329° Northwest 377 434 16,000  Level Washington Center
Fri 04:19:49 PM 36.9939 -79.7994 326° Northwest 377 434 16,000  Level Washington Center
Fri 04:20:50 PM 37.0811 -79.8667 328° Northwest 377 434 16,000  Level Washington Center
Fri 04:21:51 PM 37.1683 -79.9367 327° Northwest 377 434 16,000  Level Washington Center
Fri 04:22:51 PM 37.2469 -80.0142 322° Northwest 372 428 16,000  Level Washington Center
Fri 04:23:49 PM 37.3308 -80.1106 318° Northwest 367 422 16,000 -102 Level Washington Center
Fri 04:24:49 PM 37.4050 -80.1933 318° Northwest 367 422 15,800 -1,289 Descending Washington Center
Fri 04:25:50 PM 37.4664 -80.2756 313° West 345 397 13,400 -2,430 Descending Washington Center
Fri 04:26:50 PM 37.5153 -80.3572 307° West 314 361 10,900 -2,500 Descending Washington Center
Fri 04:27:50 PM 37.5583 -80.4333 306° West 290 334 8,400 -2,083 Descending Washington Center
Fri 04:28:51 PM 37.5953 -80.4958 307° West 270 311 6,700 -1,636 Descending Washington Center
Fri 04:29:51 PM 37.6472 -80.5492 321° Northwest 243 280 5,100 -807 Descending Washington Center
Fri 04:30:50 PM 37.7014 -80.5528 357° North 200 230 5,100 -202 Level Washington Center
Fri 04:31:50 PM 37.7492 -80.5058 38° Northeast 167 192 4,700 -650 Descending Washington Center
Fri 04:32:50 PM 37.7861 -80.4689 38° Northeast 173 199 3,800 -694 Descending Washington Center
Fri 04:33:51 PM 37.8228 -80.4425 30° Northeast 173 199 3,300 -492 Descending Washington Center

Login

Don't have an account? Register now (free) for customized features, flight alerts, and more!